Time;durP1;ratioP1;P1;durP2;ratioP2;P2;SDS_P1;SDS_P2;PMS_P1;PMS_P2;Temp;Humidity;BMP_temperature;BMP_pressure;BME280_temperature;BME280_humidity;BME280_pressure;Samples;Min_cycle;Max_cycle;Signal;HPM_P1;HPM_P2
2021/10/08 00:01:54;;;;;;;1.10;1.10;;;;;;;16.00;76.30;101612.41;4926514;29;20036;-80
2021/10/08 00:04:19;;;;;;;1.65;1.55;;;;;;;16.04;76.25;101616.25;4907131;29;20050;-78
2021/10/08 00:06:45;;;;;;;1.60;1.50;;;;;;;15.98;76.36;101606.34;4928500;29;20027;-77
2021/10/08 00:09:10;;;;;;;1.20;1.13;;;;;;;16.03;76.31;101615.44;4927633;29;20047;-78
2021/10/08 00:11:36;;;;;;;0.80;0.80;;;;;;;16.05;76.60;101623.44;4942654;29;20055;-78
2021/10/08 00:14:02;;;;;;;1.05;1.05;;;;;;;16.08;76.59;101622.91;4927442;29;20043;-77
2021/10/08 00:16:27;;;;;;;0.85;0.85;;;;;;;16.09;76.46;101629.22;4925601;29;20035;-78
2021/10/08 00:18:53;;;;;;;0.60;0.60;;;;;;;16.05;76.52;101623.44;4951086;28;20047;-77
2021/10/08 00:21:23;;;;;;;0.70;0.70;;;;;;;16.11;76.53;101627.88;4895922;29;20040;-78
2021/10/08 00:23:48;;;;;;;0.60;0.60;;;;;;;16.13;76.26;101620.13;4925510;29;20027;-78
2021/10/08 00:26:14;;;;;;;0.98;0.98;;;;;;;16.14;75.89;101616.28;4948753;29;20106;-80
2021/10/08 00:28:40;;;;;;;1.10;0.90;;;;;;;16.15;76.10;101623.47;4917181;29;20032;-79
2021/10/08 00:31:12;;;;;;;0.70;0.70;;;;;;;16.13;76.09;101614.59;4905293;29;20119;-78
2021/10/08 00:33:38;;;;;;;0.68;0.68;;;;;;;16.17;75.96;101618.47;4893285;29;20031;-79
2021/10/08 00:36:04;;;;;;;0.70;0.70;;;;;;;16.17;76.33;101615.72;4924272;29;20498;-78
2021/10/08 00:38:29;;;;;;;0.80;0.80;;;;;;;16.19;75.83;101621.81;4904554;29;20031;-79
2021/10/08 00:40:54;;;;;;;0.50;0.50;;;;;;;16.21;75.88;101625.13;4906099;29;20382;-79
2021/10/08 00:43:21;;;;;;;0.80;0.80;;;;;;;16.31;75.82;101637.25;4914932;29;20175;-79
2021/10/08 00:45:47;;;;;;;0.88;0.82;;;;;;;16.31;75.95;101634.50;4909165;29;20031;-79
2021/10/08 00:48:16;;;;;;;0.73;0.73;;;;;;;16.31;75.48;101631.72;4909323;29;20035;-79
2021/10/08 00:50:45;;;;;;;1.63;1.42;;;;;;;16.29;75.79;101628.44;4929311;29;20434;-78
2021/10/08 00:53:11;;;;;;;4.05;1.63;;;;;;;16.32;75.49;101636.16;4939107;29;20043;-78
2021/10/08 00:55:42;;;;;;;1.85;1.75;;;;;;;16.31;75.58;101638.09;4922092;29;20044;-81
2021/10/08 00:58:09;;;;;;;1.42;1.33;;;;;;;16.27;75.51;101625.13;4942265;29;20516;-77
2021/10/08 01:00:38;;;;;;;0.70;0.70;;;;;;;16.36;75.33;101645.56;4935016;29;20031;-76
2021/10/08 01:03:03;;;;;;;0.50;0.50;;;;;;;16.32;75.05;101638.91;4924316;29;20036;-77
2021/10/08 01:05:29;;;;;;;0.60;0.60;;;;;;;16.35;75.64;101635.59;4947716;29;20027;-75
2021/10/08 01:07:54;;;;;;;0.43;0.43;;;;;;;16.42;75.75;101643.63;4923004;29;20429;-75
2021/10/08 01:10:20;;;;;;;0.60;0.30;;;;;;;16.37;75.33;101637.00;4944001;29;20040;-76
2021/10/08 01:12:45;;;;;;;0.55;0.55;;;;;;;16.40;75.62;101641.13;4919221;29;20049;-75
2021/10/08 01:15:11;;;;;;;0.43;0.43;;;;;;;16.44;75.06;101638.63;4955004;28;20079;-77
2021/10/08 01:17:37;;;;;;;0.38;0.38;;;;;;;16.48;75.41;101648.84;4913958;28;20027;-78
2021/10/08 01:20:11;;;;;;;0.50;0.50;;;;;;;16.50;75.15;101643.06;4923285;29;20040;-77
2021/10/08 01:22:37;;;;;;;0.40;0.40;;;;;;;16.44;74.93;101639.50;4923569;29;20028;-76
2021/10/08 01:25:03;;;;;;;0.40;0.40;;;;;;;16.45;75.29;101638.38;4933883;29;20038;-76
2021/10/08 01:27:36;;;;;;;2.20;0.98;;;;;;;16.48;74.91;101637.00;4938553;29;20039;-76
2021/10/08 01:30:07;;;;;;;1.10;1.00;;;;;;;16.47;75.08;101633.41;4918218;29;20032;-77
2021/10/08 01:32:33;;;;;;;0.60;0.60;;;;;;;16.51;74.72;101647.47;4928890;29;20056;-78
2021/10/08 01:34:59;;;;;;;0.38;0.30;;;;;;;16.47;75.23;101644.47;4918062;29;20039;-78
2021/10/08 01:37:24;;;;;;;0.30;0.30;;;;;;;16.47;74.77;101638.94;4913408;29;20123;-78
2021/10/08 01:39:50;;;;;;;0.30;0.30;;;;;;;16.53;74.67;101651.63;4936371;29;20028;-78
2021/10/08 01:42:16;;;;;;;0.43;0.43;;;;;;;16.49;74.76;101641.41;4936525;29;20038;-77
2021/10/08 01:44:42;;;;;;;0.60;0.60;;;;;;;16.54;74.80;101650.53;4901411;29;20028;-76
2021/10/08 01:47:11;;;;;;;0.60;0.60;;;;;;;16.49;74.60;101639.47;4922009;29;20704;-79
2021/10/08 01:49:40;;;;;;;0.55;0.55;;;;;;;16.53;75.14;101646.09;4933143;29;20068;-79
2021/10/08 01:52:06;;;;;;;0.57;0.57;;;;;;;16.57;74.77;101658.25;4928379;29;20045;-76
2021/10/08 01:54:32;;;;;;;0.38;0.38;;;;;;;16.52;74.84;101649.97;4926357;29;20466;-78
2021/10/08 01:56:58;;;;;;;0.22;0.20;;;;;;;16.52;74.77;101644.44;4919303;29;20038;-79
2021/10/08 01:59:27;;;;;;;0.30;0.30;;;;;;;16.52;74.49;101644.44;4908166;29;20062;-79
2021/10/08 02:01:53;;;;;;;0.45;0.45;;;;;;;16.48;74.50;101637.81;4918999;29;20040;-79
2021/10/08 02:04:18;;;;;;;0.30;0.30;;;;;;;16.56;74.62;101651.06;4905858;29;20036;-77
2021/10/08 02:06:44;;;;;;;0.50;0.50;;;;;;;16.54;74.61;101647.78;4905915;29;20029;-78
2021/10/08 02:09:10;;;;;;;0.25;0.25;;;;;;;16.53;74.39;101646.09;4943026;29;20039;-79
2021/10/08 02:11:38;;;;;;;0.20;0.20;;;;;;;16.58;74.60;101654.38;4939219;29;20107;-77
2021/10/08 02:14:04;;;;;;;0.28;0.20;;;;;;;16.61;74.48;101647.47;4944834;29;20111;-77
2021/10/08 02:16:29;;;;;;;0.20;0.20;;;;;;;16.65;74.23;101658.81;4950736;29;20039;-78
2021/10/08 02:18:58;;;;;;;0.52;0.20;;;;;;;16.63;74.67;101648.03;4931499;29;20120;-77
2021/10/08 02:21:26;;;;;;;0.32;0.30;;;;;;;16.62;74.22;101649.13;4943223;29;20038;-77
2021/10/08 02:23:52;;;;;;;0.40;0.40;;;;;;;16.60;74.44;101639.47;4949317;29;20020;-76
2021/10/08 02:26:18;;;;;;;0.20;0.20;;;;;;;16.67;73.99;101651.06;4919919;29;20062;-78
2021/10/08 02:28:44;;;;;;;0.20;0.20;;;;;;;16.67;74.14;101651.88;4929550;29;20035;-79
2021/10/08 02:31:19;;;;;;;0.30;0.30;;;;;;;16.57;74.25;101644.44;4917245;29;20032;-77
2021/10/08 02:33:47;;;;;;;;;;;;;;;16.66;74.15;101653.00;4940130;29;20040;-79
2021/10/08 02:36:15;;;;;;;0.65;0.60;;;;;;;16.57;73.84;101647.22;4929984;29;19914;-77
2021/10/08 02:38:42;;;;;;;0.57;0.50;;;;;;;16.53;74.07;101651.63;4941253;29;20024;-77
2021/10/08 02:41:08;;;;;;;0.25;0.25;;;;;;;16.57;73.94;101658.25;4928905;29;20039;-78
2021/10/08 02:43:35;;;;;;;0.43;0.43;;;;;;;16.55;74.25;101654.09;4945261;29;20031;-79
2021/10/08 02:46:00;;;;;;;0.38;0.38;;;;;;;16.58;73.71;101662.66;4921139;29;20055;-73
2021/10/08 02:48:26;;;;;;;0.43;0.43;;;;;;;16.51;73.86;101642.78;4931227;29;20023;-79
2021/10/08 02:50:54;;;;;;;0.75;0.32;;;;;;;16.55;74.17;101660.44;4932609;29;20031;-77
2021/10/08 02:53:20;;;;;;;0.30;0.30;;;;;;;16.52;74.18;101655.47;4949859;29;20119;-76
2021/10/08 02:56:03;;;;;;;0.32;0.22;;;;;;;16.55;73.89;101665.97;4951914;29;20032;-76
2021/10/08 02:58:36;;;;;;;0.35;0.35;;;;;;;16.49;74.25;101658.81;4931608;29;20489;-77
2021/10/08 03:01:02;;;;;;;1.05;0.30;;;;;;;16.45;73.76;101646.66;4927433;29;20039;-78
2021/10/08 03:03:28;;;;;;;0.50;0.50;;;;;;;16.51;74.18;101653.00;4940697;29;20019;-78
2021/10/08 03:05:53;;;;;;;0.30;0.30;;;;;;;16.50;74.24;101656.84;4940376;29;20422;-78
2021/10/08 03:08:21;;;;;;;0.43;0.30;;;;;;;16.44;73.62;101653.28;4912083;29;20024;-78
2021/10/08 03:10:47;;;;;;;0.32;0.32;;;;;;;16.38;73.97;101648.84;4939428;29;20036;-77
2021/10/08 03:13:15;;;;;;;0.28;0.28;;;;;;;16.40;74.05;101657.69;4929785;29;20039;-77
2021/10/08 03:15:41;;;;;;;1.38;0.52;;;;;;;16.31;73.92;101654.66;4922629;29;20055;-77
2021/10/08 03:18:06;;;;;;;0.60;0.60;;;;;;;16.28;74.25;101649.69;4921801;29;22248;-77
2021/10/08 03:20:32;;;;;;;1.17;0.40;;;;;;;16.35;74.64;101665.97;4940283;29;20024;-77
2021/10/08 03:22:58;;;;;;;0.55;0.55;;;;;;;16.20;74.32;101656.56;4946750;29;20047;-78
2021/10/08 03:25:24;;;;;;;0.88;0.88;;;;;;;16.23;73.76;101664.28;4930464;29;20027;-76
2021/10/08 03:27:49;;;;;;;0.85;0.85;;;;;;;16.17;74.05;101665.41;4945505;29;20028;-78
2021/10/08 03:30:19;;;;;;;1.15;1.05;;;;;;;16.16;74.16;101658.22;4908128;29;20043;-78
2021/10/08 03:32:47;;;;;;;1.05;1.02;;;;;;;16.18;74.21;101671.75;4948121;29;20039;-78
2021/10/08 03:35:13;;;;;;;1.48;1.35;;;;;;;16.14;74.35;101665.94;4926035;29;20032;-77
2021/10/08 03:40:08;;;;;;;0.77;0.57;;;;;;;16.19;73.92;101674.25;4922257;29;20024;-75
2021/10/08 03:42:33;;;;;;;0.30;0.30;;;;;;;16.09;74.47;101663.19;4920546;29;20087;-76
2021/10/08 03:45:04;;;;;;;0.50;0.50;;;;;;;16.14;74.06;101673.41;4915018;29;20074;-75
2021/10/08 03:47:42;;;;;;;0.55;0.55;;;;;;;16.07;74.05;101657.09;4921485;29;20111;-76
2021/10/08 03:50:09;;;;;;;1.88;0.52;;;;;;;16.12;74.51;101668.16;4927279;29;20027;-77
2021/10/08 03:52:38;;;;;;;0.57;0.57;;;;;;;16.12;74.44;101668.16;4928531;29;20106;-76
2021/10/08 03:55:04;;;;;;;1.55;0.50;;;;;;;16.07;74.47;101678.34;4928879;29;20453;-76
2021/10/08 03:57:29;;;;;;;0.95;0.28;;;;;;;16.09;74.34;101681.66;4904144;29;20027;-77
2021/10/08 03:59:57;;;;;;;0.60;0.60;;;;;;;16.04;74.45;101676.97;4963526;29;20046;-77
2021/10/08 04:02:22;;;;;;;1.02;0.68;;;;;;;16.09;74.33;101682.50;4929682;29;20055;-77
2021/10/08 04:04:48;;;;;;;4.85;0.80;;;;;;;15.98;74.60;101665.09;4930921;29;20035;-76
2021/10/08 04:07:15;;;;;;;1.42;0.70;;;;;;;15.94;74.59;101668.66;4926507;29;20087;-78
2021/10/08 04:09:41;;;;;;;1.50;0.70;;;;;;;15.84;74.77;101667.53;4935398;29;20044;-79
2021/10/08 04:12:08;;;;;;;0.75;0.60;;;;;;;15.90;75.00;101671.13;4928012;29;20032;-78
2021/10/08 04:14:34;;;;;;;0.40;0.30;;;;;;;15.84;74.64;101673.06;4927935;29;20099;-78
2021/10/08 04:17:09;;;;;;;;;;;;;;;;;;;;;
2021/10/08 04:19:35;;;;;;;0.40;0.40;;;;;;;15.97;75.01;101676.41;4950162;29;20114;-78
2021/10/08 04:22:23;;;;;;;;;;;;;;;;;;;;;
2021/10/08 04:24:49;;;;;;;0.50;0.50;;;;;;;15.99;74.79;101679.69;4932420;29;20110;-75
2021/10/08 04:27:35;;;;;;;0.57;0.52;;;;;;;15.91;74.76;101660.94;4900603;29;20058;-76
2021/10/08 04:30:01;;;;;;;0.70;0.70;;;;;;;15.89;74.63;101658.44;4917593;29;20039;-77
2021/10/08 04:32:26;;;;;;;0.65;0.60;;;;;;;16.01;74.58;101681.09;4946661;29;20034;-76
2021/10/08 04:34:52;;;;;;;0.50;0.50;;;;;;;15.95;74.52;101673.09;4946395;29;20047;-77
2021/10/08 04:37:17;;;;;;;0.57;0.57;;;;;;;16.00;74.61;101686.88;4906527;29;20367;-76
2021/10/08 04:39:43;;;;;;;0.38;0.38;;;;;;;15.91;74.72;101677.47;4920779;29;20142;-76
2021/10/08 04:42:08;;;;;;;0.65;0.43;;;;;;;15.92;74.39;101687.44;4943250;29;20019;-76
2021/10/08 04:44:36;;;;;;;0.28;0.28;;;;;;;15.88;74.46;101687.94;4924012;29;20038;-76
2021/10/08 04:47:03;;;;;;;0.45;0.30;;;;;;;15.88;74.81;101690.69;4945092;29;20110;-76
2021/10/08 04:49:28;;;;;;;0.45;0.45;;;;;;;15.91;74.55;101694.03;4917547;29;20768;-74
2021/10/08 04:51:54;;;;;;;0.40;0.40;;;;;;;15.87;74.57;101702.00;4934301;29;20080;-76
2021/10/08 04:54:19;;;;;;;0.70;0.55;;;;;;;15.74;75.14;101683.19;4935332;29;20036;-75
2021/10/08 04:56:45;;;;;;;0.93;0.65;;;;;;;15.74;75.08;101700.56;4922160;29;20046;-74
2021/10/08 04:59:10;;;;;;;2.90;1.33;;;;;;;15.67;75.14;101683.44;4919744;29;20035;-75
2021/10/08 05:01:36;;;;;;;0.30;0.30;;;;;;;15.64;75.56;101689.50;4938493;29;20028;-76
2021/10/08 05:04:02;;;;;;;0.40;0.40;;;;;;;15.64;75.38;101686.75;4929135;29;20042;-75
2021/10/08 05:06:27;;;;;;;0.30;0.30;;;;;;;15.62;75.42;101675.16;4933008;29;20539;-74
2021/10/08 05:08:55;;;;;;;0.32;0.32;;;;;;;15.67;75.76;101688.97;4910077;29;20034;-75
2021/10/08 05:11:22;;;;;;;1.55;0.35;;;;;;;15.65;75.38;101688.38;4945645;29;20032;-75
2021/10/08 05:13:49;;;;;;;0.30;0.30;;;;;;;15.57;75.48;101672.38;4941799;29;20031;-75
2021/10/08 05:16:15;;;;;;;0.10;0.10;;;;;;;15.65;75.43;101674.59;4926522;29;20082;-75
2021/10/08 05:18:41;;;;;;;0.10;0.10;;;;;;;15.64;75.98;101684.00;4937647;28;20494;-73
2021/10/08 05:21:06;;;;;;;0.10;0.10;;;;;;;15.68;75.60;101690.59;4938982;29;20045;-75
2021/10/08 05:23:33;;;;;;;0.10;0.10;;;;;;;15.61;75.21;101667.97;4946419;29;20028;-74
2021/10/08 05:25:58;;;;;;;0.20;0.20;;;;;;;15.65;75.53;101680.13;4925869;29;20031;-74
2021/10/08 05:28:26;;;;;;;0.20;0.20;;;;;;;15.68;75.75;101668.53;4943083;29;20215;-75
2021/10/08 05:30:52;;;;;;;0.30;0.30;;;;;;;15.73;75.55;101687.88;4925764;29;20026;-75
2021/10/08 05:33:20;;;;;;;0.30;0.28;;;;;;;15.70;75.44;101678.22;4947500;29;20043;-74
2021/10/08 05:35:46;;;;;;;0.75;0.22;;;;;;;15.79;75.72;101697.03;4921862;29;20067;-73
2021/10/08 05:38:11;;;;;;;0.10;0.10;;;;;;;15.77;75.46;101686.25;4941170;29;20128;-73
2021/10/08 05:40:37;;;;;;;0.30;0.20;;;;;;;15.68;75.41;101674.06;4898787;29;20048;-73
2021/10/08 05:43:03;;;;;;;0.15;0.15;;;;;;;15.71;75.80;101684.53;4942390;29;20377;-73
2021/10/08 05:45:29;;;;;;;0.00;0.00;;;;;;;15.69;75.84;101682.06;4940470;29;20027;-73
2021/10/08 05:47:54;;;;;;;0.17;0.17;;;;;;;15.71;75.60;101679.03;4916259;29;20031;-74
2021/10/08 05:50:20;;;;;;;1.08;0.43;;;;;;;15.75;75.74;101691.19;4934748;29;20038;-75
2021/10/08 05:52:45;;;;;;;0.85;0.43;;;;;;;15.75;75.72;101693.94;4938153;29;20027;-77
2021/10/08 05:55:11;;;;;;;0.30;0.30;;;;;;;15.75;75.48;101690.38;4946968;29;20031;-78
2021/10/08 05:57:37;;;;;;;0.40;0.40;;;;;;;15.72;75.80;101688.97;4942440;29;20039;-77
2021/10/08 06:00:04;;;;;;;0.20;0.20;;;;;;;15.65;75.43;101677.34;4948590;29;20099;-75
2021/10/08 06:02:30;;;;;;;0.40;0.30;;;;;;;15.68;75.54;101685.09;4944832;29;20027;-75
2021/10/08 06:04:56;;;;;;;0.50;0.50;;;;;;;15.68;75.48;101690.59;4920940;29;20023;-76
2021/10/08 06:07:22;;;;;;;0.50;0.50;;;;;;;15.66;75.51;101692.81;4937970;29;20063;-77
2021/10/08 06:09:47;;;;;;;0.38;0.38;;;;;;;15.67;75.81;101700.81;4922109;29;20028;-74
2021/10/08 06:12:14;;;;;;;0.20;0.20;;;;;;;15.65;75.92;101696.66;4923238;29;20135;-77
2021/10/08 06:14:40;;;;;;;0.20;0.20;;;;;;;15.65;75.64;101696.66;4941523;29;20027;-75
2021/10/08 06:17:06;;;;;;;0.20;0.17;;;;;;;15.61;75.66;101690.00;4917871;29;20039;-77
2021/10/08 06:19:31;;;;;;;0.40;0.30;;;;;;;15.56;76.13;101690.81;4943594;29;20060;-75
2021/10/08 06:21:57;;;;;;;0.63;0.30;;;;;;;15.62;75.93;101702.72;4943113;29;20020;-75
2021/10/08 06:24:25;;;;;;;0.45;0.45;;;;;;;15.64;76.26;101706.88;4937935;29;20033;-73
2021/10/08 06:26:50;;;;;;;0.38;0.30;;;;;;;15.64;75.81;101711.56;4925460;29;20039;-75
2021/10/08 06:29:16;;;;;;;0.25;0.25;;;;;;;15.57;75.91;101699.94;4926775;29;20032;-74
2021/10/08 06:31:42;;;;;;;0.10;0.10;;;;;;;15.68;76.20;101712.66;4916623;29;20043;-75
2021/10/08 06:34:07;;;;;;;0.10;0.10;;;;;;;15.69;75.57;101714.31;4935860;29;20469;-73
2021/10/08 06:36:33;;;;;;;1.10;0.32;;;;;;;15.65;76.04;101714.06;4922221;29;20032;-75
2021/10/08 06:38:58;;;;;;;1.25;0.90;;;;;;;15.65;76.09;101718.72;4936204;29;20031;-77
2021/10/08 06:41:24;;;;;;;0.80;0.70;;;;;;;15.57;76.24;101713.72;4920621;29;20032;-77
2021/10/08 06:43:49;;;;;;;0.50;0.50;;;;;;;15.49;76.03;101710.38;4917709;29;20591;-78
2021/10/08 06:46:29;;;;;;;0.55;0.55;;;;;;;15.53;76.06;101728.03;5093500;23;20082;-77
2021/10/08 06:48:56;;;;;;;0.30;0.30;;;;;;;15.50;76.36;101725.00;4902757;29;20040;-77
2021/10/08 06:51:22;;;;;;;0.38;0.38;;;;;;;15.57;76.21;101735.78;4938525;29;20456;-77
2021/10/08 06:53:47;;;;;;;1.30;0.57;;;;;;;15.53;76.17;101732.72;4937893;29;20044;-77
2021/10/08 06:56:16;;;;;;;0.30;0.30;;;;;;;15.50;76.50;101734.06;4934014;29;20032;-77
2021/10/08 06:58:42;;;;;;;0.68;0.50;;;;;;;15.60;76.67;101738.00;4926725;29;21460;-77
2021/10/08 07:01:07;;;;;;;0.30;0.30;;;;;;;15.56;76.42;101734.13;4926427;29;20039;-77
2021/10/08 07:03:33;;;;;;;0.40;0.40;;;;;;;15.65;76.42;101738.00;4927107;29;20108;-76
2021/10/08 07:05:59;;;;;;;0.30;0.30;;;;;;;15.63;75.98;101735.53;4932562;29;20036;-75
2021/10/08 07:08:24;;;;;;;0.30;0.30;;;;;;;15.69;76.21;101739.16;4913428;29;20544;-74
2021/10/08 07:10:50;;;;;;;0.28;0.28;;;;;;;15.74;75.76;101733.66;4940529;29;20035;-76
2021/10/08 07:13:15;;;;;;;0.47;0.47;;;;;;;15.81;76.08;101750.84;4931311;29;20031;-74
2021/10/08 07:15:41;;;;;;;0.22;0.22;;;;;;;15.80;76.08;101754.69;4924396;29;20067;-73
2021/10/08 07:18:10;;;;;;;0.30;0.30;;;;;;;15.77;76.13;101749.66;4938816;29;20028;-76
2021/10/08 07:28:12;;;;;;;;;;;;;;;;;;;;;
2021/10/08 07:31:03;;;;;;;0.30;0.30;;;;;;;15.85;75.93;101740.06;4918189;29;20137;-79
2021/10/08 07:34:00;;;;;;;0.30;0.30;;;;;;;15.91;75.64;101754.72;4928078;29;20469;-77
2021/10/08 07:44:28;;;;;;;0.30;0.30;;;;;;;15.75;75.84;101760.13;4885641;29;20029;-77
2021/10/08 08:29:03;;;;;;;;;;;;;;;;;;;;;
2021/10/08 08:32:15;;;;;;;;;;;;;;;;;;;;;
2021/10/08 08:35:34;;;;;;;0.20;0.00;;;;;;;18.19;72.57;101785.63;4768765;29;20135;-86
2021/10/08 08:41:58;;;;;;;;;;;;;;;;;;;;;
2021/10/08 08:44:31;;;;;;;0.20;0.17;;;;;;;18.10;70.84;101779.03;4776984;30;20142;-81
2021/10/08 08:47:40;;;;;;;;;;;;;;;;;;;;;
2021/10/08 08:54:03;;;;;;;0.40;0.17;;;;;;;18.07;70.10;101774.06;4929776;29;20460;-81
2021/10/08 11:07:16;;;;;;;0.00;0.00;;;;;;;21.26;64.21;101823.38;4918016;29;20103;-71
2021/10/08 11:10:06;;;;;;;0.10;0.10;;;;;;;21.45;63.95;101817.78;4904214;29;20040;-72
2021/10/08 11:12:47;;;;;;;0.00;0.00;;;;;;;21.70;63.55;101804.53;4912113;29;20028;-72
2021/10/08 11:15:30;;;;;;;0.00;0.00;;;;;;;21.99;63.46;101807.03;4894683;29;20082;-72
2021/10/08 11:18:07;;;;;;;0.15;0.10;;;;;;;22.39;62.48;101810.06;4917323;29;20048;-73
2021/10/08 11:21:14;;;;;;;0.00;0.00;;;;;;;22.79;62.40;101807.50;4909616;29;20533;-73
2021/10/08 11:52:49;;;;;;;0.35;0.30;;;;;;;22.99;56.59;101796.97;4891773;29;20068;-72
2021/10/08 11:55:27;;;;;;;0.15;0.15;;;;;;;22.78;57.38;101796.63;4871541;29;20115;-73
2021/10/08 12:03:50;;;;;;;1.65;0.28;;;;;;;22.34;57.34;101789.84;4960235;23;20048;-72
2021/10/08 12:06:42;;;;;;;0.10;0.10;;;;;;;22.29;57.27;101793.56;4916868;29;20115;-74
2021/10/08 12:09:24;;;;;;;0.77;0.25;;;;;;;22.20;57.16;101787.09;4935747;29;20028;-74
2021/10/08 12:12:15;;;;;;;0.10;0.10;;;;;;;22.11;57.31;101787.00;4916510;29;20157;-73
2021/10/08 12:15:10;;;;;;;0.10;0.10;;;;;;;22.11;57.72;101782.25;4929901;29;20392;-73
2021/10/08 12:17:42;;;;;;;0.17;0.10;;;;;;;22.09;57.69;101787.31;4916999;29;20031;-72
2021/10/08 12:20:23;;;;;;;0.80;0.20;;;;;;;22.10;57.97;101780.56;4925923;29;20036;-72
2021/10/08 12:23:34;;;;;;;0.15;0.03;;;;;;;22.18;57.84;101767.06;4902065;29;20043;-73
2021/10/08 12:26:12;;;;;;;0.10;0.10;;;;;;;22.20;58.18;101781.50;4919893;29;20059;-74
2021/10/08 12:28:50;;;;;;;0.20;0.20;;;;;;;22.08;58.37;101780.06;4937159;29;20039;-73
2021/10/08 12:32:10;;;;;;;1.00;0.20;;;;;;;21.99;58.55;101781.97;4923115;29;20590;-73
2021/10/08 12:34:52;;;;;;;0.13;0.10;;;;;;;21.93;58.37;101769.25;4819556;29;20049;-73
2021/10/08 12:51:06;;;;;;;0.00;0.00;;;;;;;22.20;58.34;101756.44;4777624;26;20086;-75
2021/10/08 13:02:00;;;;;;;;;;;;;;;;;;;;;
2021/10/08 14:46:54;;;;;;;0.50;0.50;;;;;;;21.21;58.75;101710.25;4845905;29;20058;-78
2021/10/08 14:53:05;;;;;;;;;;;;;;;;;;;;;
2021/10/08 14:59:21;;;;;;;1.40;1.40;;;;;;;20.93;58.59;101699.09;4869292;29;20097;-77
2021/10/08 15:02:01;;;;;;;1.08;1.08;;;;;;;20.82;58.98;101702.34;4880807;29;20048;-77
2021/10/08 15:11:38;;;;;;;;;;;;;;;;;;;;;
2021/10/08 15:14:33;;;;;;;;;;;;;;;;;;;;;
2021/10/08 15:17:41;;;;;;;;;;;;;;;;;;;;;
2021/10/08 15:20:45;;;;;;;1.23;1.00;;;;;;;20.39;59.54;101683.84;4881959;29;20562;-78
2021/10/08 15:23:51;;;;;;;1.30;1.20;;;;;;;20.54;59.69;101705.00;4878035;29;20077;-77
2021/10/08 15:26:48;;;;;;;0.85;0.85;;;;;;;20.53;59.83;101700.56;4870055;29;20043;-77
2021/10/08 15:29:52;;;;;;;0.90;0.90;;;;;;;20.50;59.68;101687.28;4881429;29;20135;-79
2021/10/08 15:39:26;;;;;;;3.05;2.95;;;;;;;20.32;60.04;101675.91;4892060;29;20032;-76
2021/10/08 16:20:09;;;;;;;;;;;;;;;;;;;;;
2021/10/08 16:23:35;;;;;;;2.55;2.33;;;;;;;19.76;61.61;101665.59;4924850;29;20091;-77
2021/10/08 19:11:13;;;;;;;1.63;1.52;;;;;;;18.20;68.37;101712.53;3780372;23;20359;-77
2021/10/08 19:34:14;;;;;;;0.75;0.68;;;;;;;18.15;68.75;101704.28;4813731;29;20034;-78
2021/10/08 19:36:42;;;;;;;1.23;0.95;;;;;;;18.07;68.57;101693.78;4852739;29;20130;-79
2021/10/08 19:39:11;;;;;;;0.35;0.35;;;;;;;17.99;68.27;101681.41;4900153;29;20051;-81
2021/10/08 19:41:44;;;;;;;0.50;0.50;;;;;;;17.99;68.61;101681.41;4909300;29;20028;-78
2021/10/08 19:44:16;;;;;;;0.63;0.63;;;;;;;18.13;68.55;101698.19;4931885;29;20121;-79
2021/10/08 19:46:49;;;;;;;0.40;0.40;;;;;;;18.05;68.89;101694.09;4925949;29;20080;-81
2021/10/08 19:49:38;;;;;;;0.63;0.63;;;;;;;18.01;69.00;101678.34;4909733;29;20059;-79
2021/10/08 19:52:19;;;;;;;1.10;1.10;;;;;;;18.10;68.99;101701.53;4916736;29;20076;-82
2021/10/08 19:55:03;;;;;;;;;;;;;;;;;;;;;
2021/10/08 19:57:46;;;;;;;4.40;2.38;;;;;;;17.94;68.86;101692.47;4910226;29;20080;-79
2021/10/08 20:03:49;;;;;;;3.58;3.38;;;;;;;17.93;69.65;101708.25;4859390;29;20046;-82
2021/10/08 20:20:35;;;;;;;5.35;4.80;;;;;;;17.70;70.13;101695.06;4674664;30;20407;-74
2021/10/08 22:33:52;;;;;;;1.85;1.75;;;;;;;17.52;71.87;101666.94;4929325;29;20067;-80
2021/10/08 22:36:21;;;;;;;2.40;1.63;;;;;;;17.52;71.71;101655.88;4887077;29;20043;-81
2021/10/08 22:42:35;;;;;;;;;;;;;;;;;;;;;
2021/10/08 22:45:03;;;;;;;3.22;3.03;;;;;;;17.52;71.91;101663.31;4928401;29;20474;-74
2021/10/08 22:47:31;;;;;;;3.65;3.38;;;;;;;17.45;71.84;101656.16;4925896;29;20036;-73
2021/10/08 22:50:14;;;;;;;;;;;;;;;;;;;;;
2021/10/08 22:53:00;;;;;;;3.38;3.25;;;;;;;17.44;71.27;101639.84;4928700;29;20119;-76
2021/10/08 22:55:28;;;;;;;3.47;3.30;;;;;;;17.48;71.27;101649.25;4925948;29;20052;-73
2021/10/08 22:57:59;;;;;;;2.97;2.78;;;;;;;17.55;71.58;101655.31;4926243;29;20112;-77
2021/10/08 23:00:43;;;;;;;;;;;;;;;;;;;;;
2021/10/08 23:03:39;;;;;;;;;;;;;;;;;;;;;
2021/10/08 23:09:29;;;;;;;3.05;2.13;;;;;;;17.51;71.77;101643.16;4932047;29;20095;-80
2021/10/08 23:11:58;;;;;;;2.17;2.08;;;;;;;17.47;71.58;101650.34;4870600;29;20166;-80
2021/10/08 23:14:39;;;;;;;;;;;;;;;;;;;;;
2021/10/08 23:17:10;;;;;;;1.77;1.67;;;;;;;17.36;71.27;101640.44;4932891;29;20103;-82
2021/10/08 23:19:39;;;;;;;2.00;1.90;;;;;;;17.24;71.84;101627.78;4918315;29;20186;-81
2021/10/08 23:22:12;;;;;;;3.85;1.92;;;;;;;17.18;71.51;101628.88;4916475;29;20052;-80
2021/10/08 23:24:42;;;;;;;2.28;2.17;;;;;;;16.98;71.79;101602.16;4909568;29;20028;-79
2021/10/08 23:27:08;;;;;;;2.17;2.08;;;;;;;16.94;71.95;101612.13;4925843;29;20028;-77
2021/10/08 23:29:46;;;;;;;;;;;;;;;;;;;;;
2021/10/08 23:32:21;;;;;;;2.85;2.65;;;;;;;16.87;71.89;101606.88;4928267;29;20616;-79
2021/10/08 23:34:46;;;;;;;1.80;1.70;;;;;;;16.97;71.73;101630.03;4921978;29;20032;-79
2021/10/08 23:37:12;;;;;;;1.80;1.70;;;;;;;16.91;71.75;101624.53;4896292;29;20039;-79
2021/10/08 23:39:37;;;;;;;1.50;1.48;;;;;;;16.86;72.32;101610.69;4910658;29;20028;-78
2021/10/08 23:42:03;;;;;;;1.63;1.55;;;;;;;16.87;72.28;101622.59;4913532;29;20390;-76
2021/10/08 23:44:29;;;;;;;1.75;1.65;;;;;;;16.86;72.32;101627.28;4925913;29;20028;-75
2021/10/08 23:46:54;;;;;;;1.60;1.50;;;;;;;16.78;72.48;101622.34;4928201;29;20028;-76
2021/10/08 23:49:19;;;;;;;2.05;1.90;;;;;;;16.75;72.08;101622.91;4918595;29;20430;-76
2021/10/08 23:51:45;;;;;;;1.90;1.80;;;;;;;16.72;72.88;101626.22;4899552;29;20119;-77
2021/10/08 23:54:11;;;;;;;1.90;1.80;;;;;;;16.71;72.79;101621.78;4924342;29;20028;-77
2021/10/08 23:56:45;;;;;;;3.50;2.83;;;;;;;16.71;72.28;101624.56;4910202;29;20040;-81
2021/10/08 23:59:11;;;;;;;3.85;3.55;;;;;;;16.63;72.52;101614.91;4917961;29;20036;-81
